Time;durP1;ratioP1;P1;durP2;ratioP2;P2;SDS_P1;SDS_P2;PMS_P1;PMS_P2;Temp;Humidity;BMP_temperature;BMP_pressure;BME280_temperature;BME280_humidity;BME280_pressure;Samples;Min_cycle;Max_cycle;Signal;HPM_P1;HPM_P2
2023/01/13 00:00:20;;;;;;;1.00;0.90;;;11.50;90.90;;;;;;5074576;28;20431;-80
2023/01/13 00:02:45;;;;;;;1.08;0.88;;;11.60;90.90;;;;;;5063263;28;20036;-81
2023/01/13 00:05:11;;;;;;;1.88;1.10;;;11.50;90.90;;;;;;5063420;28;20062;-82
2023/01/13 00:07:38;;;;;;;1.20;0.95;;;11.50;90.90;;;;;;5073134;28;20028;-80
2023/01/13 00:10:06;;;;;;;1.10;1.00;;;11.50;90.90;;;;;;5074094;28;20033;-80
2023/01/13 00:12:31;;;;;;;2.17;1.10;;;11.60;91.00;;;;;;5075011;28;20024;-81
2023/01/13 00:14:57;;;;;;;1.10;0.80;;;11.50;90.90;;;;;;5062191;28;20090;-82
2023/01/13 00:17:22;;;;;;;1.00;0.90;;;11.50;90.90;;;;;;5053959;28;20053;-81
2023/01/13 00:19:48;;;;;;;1.55;1.00;;;11.60;91.00;;;;;;5054442;28;20477;-81
2023/01/13 00:22:14;;;;;;;1.30;1.08;;;11.60;91.00;;;;;;5055441;28;20024;-81
2023/01/13 00:24:39;;;;;;;1.45;1.00;;;11.50;90.90;;;;;;5056496;28;20025;-82
2023/01/13 00:27:05;;;;;;;1.15;0.98;;;11.60;90.90;;;;;;5055493;28;20131;-82
2023/01/13 00:29:30;;;;;;;1.60;0.95;;;11.50;90.90;;;;;;5053521;28;20021;-81
2023/01/13 00:31:57;;;;;;;0.98;0.90;;;11.60;90.90;;;;;;5056460;28;20025;-81
2023/01/13 00:34:23;;;;;;;2.00;1.10;;;11.50;90.90;;;;;;5057840;28;20017;-81
2023/01/13 00:36:49;;;;;;;1.23;1.00;;;11.60;90.90;;;;;;5056513;28;20047;-82
2023/01/13 00:39:14;;;;;;;1.33;1.10;;;11.50;90.90;;;;;;5056790;28;20477;-80
2023/01/13 00:44:24;;;;;;;1.33;0.98;;;11.60;90.90;;;;;;5057745;28;20055;-81
2023/01/13 00:46:49;;;;;;;1.60;1.13;;;11.50;90.90;;;;;;5056366;28;20033;-80
2023/01/13 00:49:15;;;;;;;1.02;0.90;;;11.60;90.90;;;;;;5058078;28;20093;-79
2023/01/13 00:51:40;;;;;;;2.00;0.90;;;11.60;90.90;;;;;;5057176;28;20028;-80
2023/01/13 00:54:06;;;;;;;1.73;0.98;;;11.60;90.90;;;;;;5056076;28;20482;-81
2023/01/13 00:56:32;;;;;;;2.03;1.02;;;11.60;90.90;;;;;;5059102;28;20104;-81
2023/01/13 00:58:57;;;;;;;1.38;0.88;;;11.60;90.90;;;;;;5057356;28;20044;-81
2023/01/13 01:01:23;;;;;;;1.40;1.00;;;11.50;90.90;;;;;;5057735;28;20051;-77
2023/01/13 01:03:51;;;;;;;0.98;0.80;;;11.60;90.90;;;;;;5057005;28;20025;-80
2023/01/13 01:06:23;;;;;;;1.15;0.82;;;11.50;90.90;;;;;;5057357;28;20025;-80
2023/01/13 01:08:49;;;;;;;1.73;1.00;;;11.60;90.90;;;;;;5055821;28;20025;-80
2023/01/13 01:11:20;;;;;;;1.15;0.90;;;11.50;91.10;;;;;;5056842;28;20175;-80
2023/01/13 01:13:46;;;;;;;0.90;0.80;;;11.60;90.90;;;;;;5057578;28;20025;-80
2023/01/13 01:16:14;;;;;;;1.17;0.85;;;11.60;90.90;;;;;;5057612;28;20033;-80
2023/01/13 01:18:44;;;;;;;2.35;1.10;;;11.50;90.90;;;;;;5056908;28;20539;-80
2023/01/13 01:21:10;;;;;;;1.23;0.90;;;11.50;90.90;;;;;;5056957;28;20134;-80
2023/01/13 01:23:38;;;;;;;0.75;0.75;;;11.60;90.90;;;;;;5058010;28;20033;-80
2023/01/13 01:26:06;;;;;;;2.15;1.00;;;11.50;90.90;;;;;;5055155;28;20021;-80
2023/01/13 01:28:32;;;;;;;1.02;0.90;;;11.60;90.90;;;;;;5055415;28;20032;-81
2023/01/13 01:30:58;;;;;;;1.00;0.90;;;11.50;90.90;;;;;;5055302;28;20055;-80
2023/01/13 01:33:24;;;;;;;1.00;0.90;;;11.50;90.90;;;;;;5055517;28;20393;-81
2023/01/13 01:35:50;;;;;;;1.10;0.80;;;11.50;90.90;;;;;;5054853;28;20025;-80
2023/01/13 01:38:16;;;;;;;1.50;0.88;;;11.50;90.90;;;;;;5054996;28;20397;-81
2023/01/13 01:40:41;;;;;;;0.85;0.80;;;11.60;90.90;;;;;;5057550;28;20054;-82
2023/01/13 01:45:59;;;;;;;1.30;0.90;;;11.60;90.90;;;;;;5056602;28;20043;-81
2023/01/13 01:48:27;;;;;;;1.15;0.80;;;11.50;90.80;;;;;;5055521;28;20474;-80
2023/01/13 01:50:53;;;;;;;0.98;0.80;;;11.50;90.80;;;;;;5055819;28;20029;-81
2023/01/13 01:53:23;;;;;;;1.35;0.98;;;11.60;90.90;;;;;;5054205;28;20033;-81
2023/01/13 01:55:49;;;;;;;2.33;1.10;;;11.50;90.80;;;;;;5054367;28;20024;-83
2023/01/13 01:58:16;;;;;;;1.17;0.90;;;11.50;90.90;;;;;;5054861;28;20158;-79
2023/01/13 02:00:42;;;;;;;2.05;1.00;;;11.60;90.90;;;;;;5060164;28;20025;-81
2023/01/13 02:03:09;;;;;;;0.90;0.75;;;11.60;90.90;;;;;;5058109;28;20142;-81
2023/01/13 02:05:35;;;;;;;1.35;0.80;;;11.50;90.90;;;;;;5057202;28;20024;-81
2023/01/13 02:08:02;;;;;;;2.03;0.82;;;11.50;90.80;;;;;;5056597;28;20025;-81
2023/01/13 02:10:29;;;;;;;1.70;0.88;;;11.50;90.80;;;;;;5058015;28;20032;-82
2023/01/13 02:12:58;;;;;;;1.23;0.85;;;11.60;90.90;;;;;;5057312;28;20477;-81
2023/01/13 02:15:35;;;;;;;1.52;0.80;;;11.60;90.90;;;;;;5056915;28;20400;-81
2023/01/13 02:18:18;;;;;;;1.48;0.77;;;11.50;90.80;;;;;;5058650;28;20394;-80
2023/01/13 02:21:12;;;;;;;0.70;0.70;;;11.60;90.90;;;;;;5058470;28;20025;-82
2023/01/13 02:27:28;;;;;;;0.98;0.80;;;11.60;90.90;;;;;;5058709;28;20036;-81
2023/01/13 02:33:42;;;;;;;2.33;0.90;;;11.50;90.80;;;;;;5057462;28;20036;-80
2023/01/13 02:36:23;;;;;;;1.50;0.70;;;11.60;90.90;;;;;;5056093;28;20075;-80
2023/01/13 02:39:10;;;;;;;2.63;0.88;;;11.60;90.90;;;;;;5057008;28;20462;-80
2023/01/13 02:44:47;;;;;;;1.63;0.90;;;11.60;90.80;;;;;;5057081;28;20528;-81
2023/01/13 02:47:25;;;;;;;3.95;0.80;;;11.60;90.90;;;;;;5056744;28;20043;-80
2023/01/13 02:50:00;;;;;;;1.42;0.70;;;11.60;90.90;;;;;;5055331;28;20563;-80
2023/01/13 02:52:35;;;;;;;2.13;0.90;;;11.60;90.80;;;;;;5054873;28;20107;-82
2023/01/13 02:55:16;;;;;;;1.02;0.60;;;11.60;90.80;;;;;;5055747;28;20032;-82
2023/01/13 02:57:43;;;;;;;1.05;0.65;;;11.60;90.90;;;;;;5056444;28;20028;-82
2023/01/13 03:00:11;;;;;;;0.82;0.60;;;11.50;90.80;;;;;;5056687;28;20025;-82
2023/01/13 03:02:37;;;;;;;1.17;0.70;;;11.60;90.90;;;;;;5056817;28;20482;-81
2023/01/13 03:05:03;;;;;;;1.52;0.75;;;11.60;90.90;;;;;;5056351;28;20021;-82
2023/01/13 03:07:52;;;;;;;1.13;0.75;;;11.60;90.80;;;;;;5055723;28;20025;-80
2023/01/13 03:10:48;;;;;;;2.45;0.75;;;11.50;90.80;;;;;;5056236;28;20123;-81
2023/01/13 03:13:39;;;;;;;2.42;0.70;;;11.50;90.80;;;;;;5057106;28;20060;-81
2023/01/13 03:16:46;;;;;;;0.98;0.70;;;11.50;90.80;;;;;;5055349;28;20028;-82
2023/01/13 03:19:24;;;;;;;1.40;0.68;;;11.60;90.80;;;;;;5054384;28;20025;-80
2023/01/13 03:22:16;;;;;;;1.48;0.80;;;11.60;90.90;;;;;;5056907;28;20060;-80
2023/01/13 03:25:21;;;;;;;2.72;1.00;;;11.60;90.80;;;;;;5056233;28;20048;-80
2023/01/13 03:28:12;;;;;;;1.60;0.70;;;11.60;90.80;;;;;;5044210;28;20320;-82
2023/01/13 03:30:43;;;;;;;1.45;0.70;;;11.50;90.80;;;;;;5073828;28;20032;-80
2023/01/13 03:33:17;;;;;;;1.75;0.70;;;11.50;90.80;;;;;;5074772;28;20042;-80
2023/01/13 03:35:46;;;;;;;1.85;0.70;;;11.60;90.80;;;;;;5075061;28;20035;-82
2023/01/13 03:38:24;;;;;;;1.83;0.80;;;11.50;90.80;;;;;;5078059;28;20076;-82
2023/01/13 03:41:19;;;;;;;1.45;0.75;;;11.60;90.80;;;;;;5073872;28;20022;-80
2023/01/13 03:46:59;;;;;;;1.38;0.80;;;11.60;90.80;;;;;;5075704;28;20023;-81
2023/01/13 03:49:50;;;;;;;1.33;0.70;;;11.60;90.80;;;;;;5074080;28;20025;-83
2023/01/13 03:52:25;;;;;;;1.63;0.90;;;11.50;90.80;;;;;;5069082;28;20044;-80
2023/01/13 03:54:56;;;;;;;3.40;0.93;;;11.60;90.80;;;;;;5075971;28;20787;-82
2023/01/13 03:57:27;;;;;;;2.00;0.77;;;11.60;90.80;;;;;;5073720;28;20373;-80
2023/01/13 03:59:57;;;;;;;2.43;0.90;;;11.50;90.80;;;;;;5073687;28;20028;-82
2023/01/13 04:02:39;;;;;;;2.17;0.70;;;11.60;90.80;;;;;;5074857;28;20255;-80
2023/01/13 04:05:08;;;;;;;2.40;0.82;;;11.50;90.80;;;;;;5075838;28;20035;-81
2023/01/13 04:07:53;;;;;;;2.90;0.95;;;11.60;90.80;;;;;;5077426;28;20031;-81
2023/01/13 04:10:26;;;;;;;3.00;0.80;;;11.50;90.70;;;;;;5077320;28;20082;-80
2023/01/13 04:13:06;;;;;;;1.77;0.73;;;11.50;90.70;;;;;;5077745;28;20028;-80
2023/01/13 04:15:37;;;;;;;1.80;0.80;;;11.60;90.80;;;;;;5080751;28;20024;-82
2023/01/13 04:18:24;;;;;;;5.03;0.88;;;11.60;90.80;;;;;;5078579;28;20055;-81
2023/01/13 04:20:51;;;;;;;2.55;1.02;;;11.60;90.80;;;;;;5078152;28;20120;-82
2023/01/13 04:23:18;;;;;;;2.72;0.80;;;11.50;90.70;;;;;;5075970;28;20074;-82
2023/01/13 04:25:44;;;;;;;2.10;0.70;;;11.60;90.80;;;;;;5079939;28;20070;-83
2023/01/13 04:28:10;;;;;;;3.28;0.90;;;11.50;90.80;;;;;;5081259;28;20036;-82
2023/01/13 04:30:37;;;;;;;3.22;0.85;;;11.60;90.80;;;;;;5080385;28;20033;-78
2023/01/13 04:33:04;;;;;;;2.95;0.80;;;11.60;90.70;;;;;;5076773;28;20020;-80
2023/01/13 04:35:30;;;;;;;3.58;0.93;;;11.60;90.70;;;;;;5078118;28;20016;-80
2023/01/13 04:37:55;;;;;;;2.42;0.70;;;11.50;90.70;;;;;;5076565;28;20029;-82
2023/01/13 04:40:21;;;;;;;2.20;0.85;;;11.50;90.70;;;;;;5078012;28;20516;-81
2023/01/13 04:42:47;;;;;;;3.03;0.90;;;11.50;90.70;;;;;;5077570;28;20705;-81
2023/01/13 04:45:13;;;;;;;2.92;0.90;;;11.60;90.80;;;;;;5076644;28;20019;-80
2023/01/13 04:47:40;;;;;;;3.10;1.10;;;11.60;90.80;;;;;;5077383;28;20097;-80
2023/01/13 04:50:07;;;;;;;3.15;0.90;;;11.50;90.70;;;;;;5077320;28;20112;-81
2023/01/13 04:52:32;;;;;;;2.13;0.80;;;11.50;90.70;;;;;;5078279;28;20031;-81
2023/01/13 04:54:58;;;;;;;2.88;1.00;;;11.50;90.70;;;;;;5079432;28;20103;-81
2023/01/13 04:57:23;;;;;;;4.55;1.40;;;11.50;90.70;;;;;;5077673;28;20090;-80
2023/01/13 04:59:49;;;;;;;2.90;0.82;;;11.60;90.70;;;;;;5075606;28;20052;-80
2023/01/13 05:02:18;;;;;;;3.08;1.02;;;11.50;90.90;;;;;;5075289;28;20552;-82
2023/01/13 05:04:45;;;;;;;3.42;1.20;;;11.50;90.70;;;;;;5076756;28;20026;-80
2023/01/13 05:07:11;;;;;;;3.00;0.80;;;11.60;90.70;;;;;;5076399;28;20035;-80
2023/01/13 05:09:37;;;;;;;3.13;0.90;;;11.50;90.70;;;;;;5076042;28;20021;-81
2023/01/13 05:17:31;;;;;;;2.45;0.80;;;11.60;90.70;;;;;;5076038;28;20031;-80
2023/01/13 05:19:57;;;;;;;3.65;0.98;;;11.50;90.70;;;;;;5077578;28;20017;-80
2023/01/13 05:25:23;;;;;;;3.40;1.10;;;11.60;90.70;;;;;;5080794;28;20023;-82
2023/01/13 05:27:53;;;;;;;2.30;0.70;;;11.50;90.60;;;;;;5075192;28;20029;-81
2023/01/13 05:30:25;;;;;;;2.65;0.80;;;11.50;90.60;;;;;;5069753;28;20035;-81
2023/01/13 05:32:51;;;;;;;4.88;1.10;;;11.60;90.60;;;;;;5078011;28;20401;-81
2023/01/13 05:35:16;;;;;;;3.67;0.95;;;11.50;90.40;;;;;;5078075;28;20053;-82
2023/01/13 05:37:43;;;;;;;2.47;0.77;;;11.50;90.60;;;;;;5076829;28;20031;-81
2023/01/13 05:43:19;;;;;;;3.13;0.90;;;11.50;90.60;;;;;;5079169;28;20036;-82
2023/01/13 05:45:58;;;;;;;3.85;1.00;;;11.60;90.60;;;;;;5077052;28;20743;-81
2023/01/13 05:48:27;;;;;;;2.92;0.90;;;11.60;90.40;;;;;;5078609;28;20104;-81
2023/01/13 05:50:53;;;;;;;3.88;1.20;;;11.60;90.40;;;;;;5078769;28;20064;-81
2023/01/13 05:53:20;;;;;;;4.03;1.00;;;11.50;90.40;;;;;;5079803;28;20024;-80
2023/01/13 05:55:45;;;;;;;4.55;1.30;;;11.50;90.40;;;;;;5076482;28;20029;-82
2023/01/13 05:58:13;;;;;;;4.47;1.10;;;11.50;90.40;;;;;;5076796;28;20502;-80
2023/01/13 06:00:38;;;;;;;3.70;0.95;;;11.60;90.40;;;;;;5076127;28;20013;-81
2023/01/13 06:03:04;;;;;;;3.55;1.20;;;11.50;90.40;;;;;;5077159;28;20039;-81
2023/01/13 06:05:30;;;;;;;2.65;0.90;;;11.60;90.30;;;;;;5073101;28;20016;-79
2023/01/13 06:08:01;;;;;;;4.60;1.02;;;11.50;90.40;;;;;;5070021;28;20404;-78
2023/01/13 06:10:27;;;;;;;2.40;0.80;;;11.60;90.60;;;;;;5069802;28;20036;-77
2023/01/13 06:12:53;;;;;;;4.38;1.00;;;11.50;90.40;;;;;;5070101;28;20043;-78
2023/01/13 06:15:19;;;;;;;4.20;0.90;;;11.60;90.50;;;;;;5070002;28;20058;-78
2023/01/13 06:17:44;;;;;;;4.80;1.10;;;11.50;90.50;;;;;;5068521;28;20476;-80
2023/01/13 06:20:11;;;;;;;5.10;1.10;;;11.60;90.50;;;;;;5068560;28;20036;-78
2023/01/13 06:22:40;;;;;;;3.53;0.90;;;11.50;90.30;;;;;;5068930;28;20492;-79
2023/01/13 06:25:22;;;;;;;2.58;0.82;;;11.60;90.40;;;;;;5068694;28;20037;-77
2023/01/13 06:27:49;;;;;;;4.88;0.95;;;11.50;90.40;;;;;;5064907;28;20059;-77
2023/01/13 06:30:15;;;;;;;4.70;0.98;;;11.50;90.30;;;;;;5068138;28;20063;-77
2023/01/13 06:32:45;;;;;;;3.25;1.20;;;11.60;90.20;;;;;;5069398;28;20079;-81
2023/01/13 06:35:14;;;;;;;2.63;0.88;;;11.50;90.30;;;;;;5069734;28;20033;-82
2023/01/13 06:37:42;;;;;;;4.47;1.10;;;11.50;90.40;;;;;;5068074;28;20035;-77
2023/01/13 06:40:10;;;;;;;3.10;0.95;;;11.50;90.40;;;;;;5068067;28;20021;-77
2023/01/13 06:45:23;;;;;;;4.18;1.08;;;11.60;90.40;;;;;;5069970;28;20085;-80
2023/01/13 06:47:48;;;;;;;4.25;0.93;;;11.50;90.30;;;;;;5069015;28;20108;-77
2023/01/13 06:50:17;;;;;;;3.70;0.90;;;11.60;90.40;;;;;;5067867;28;20170;-82
2023/01/13 06:52:42;;;;;;;3.50;0.90;;;11.60;90.40;;;;;;5069309;28;20111;-78
2023/01/13 06:55:08;;;;;;;3.67;1.10;;;11.60;90.50;;;;;;5067450;28;20143;-79
2023/01/13 06:57:34;;;;;;;3.53;0.85;;;11.50;90.50;;;;;;5068069;28;20500;-76
2023/01/13 06:59:59;;;;;;;4.00;0.90;;;11.60;90.50;;;;;;5068631;28;20033;-81
2023/01/13 07:02:27;;;;;;;3.05;0.88;;;11.50;90.50;;;;;;5067249;28;20028;-78
2023/01/13 07:04:52;;;;;;;4.00;0.95;;;11.50;90.50;;;;;;5068836;28;20031;-78
2023/01/13 07:07:17;;;;;;;4.32;0.90;;;11.50;90.50;;;;;;5069029;28;20025;-75
2023/01/13 07:09:43;;;;;;;3.55;0.90;;;11.50;90.50;;;;;;5068741;28;20028;-78
2023/01/13 07:12:08;;;;;;;3.40;0.80;;;11.50;90.50;;;;;;5067766;28;20468;-79
2023/01/13 07:17:23;;;;;;;2.22;0.75;;;11.50;90.50;;;;;;5068749;28;20496;-77
2023/01/13 07:19:50;;;;;;;1.63;0.77;;;11.60;90.50;;;;;;5067864;28;20028;-80
2023/01/13 07:22:16;;;;;;;2.17;0.80;;;11.50;90.70;;;;;;5067356;28;20029;-77
2023/01/13 07:24:41;;;;;;;3.80;1.00;;;11.60;90.50;;;;;;5066929;28;20016;-77
2023/01/13 07:27:07;;;;;;;2.55;0.90;;;11.50;90.50;;;;;;5068739;28;20032;-77
2023/01/13 07:29:32;;;;;;;2.15;0.70;;;11.60;90.50;;;;;;5067180;28;20063;-76
2023/01/13 07:31:57;;;;;;;3.42;0.85;;;11.50;90.50;;;;;;5057737;28;20037;-75
2023/01/13 07:34:23;;;;;;;4.05;1.02;;;11.50;90.50;;;;;;5048480;28;20821;-79
2023/01/13 07:36:48;;;;;;;3.13;0.80;;;11.50;90.50;;;;;;5047345;28;20079;-77
2023/01/13 07:39:14;;;;;;;3.40;1.00;;;11.60;90.50;;;;;;5067985;28;20038;-78
2023/01/13 07:44:23;;;;;;;3.47;0.90;;;11.50;90.40;;;;;;5068938;28;20090;-78
2023/01/13 07:46:49;;;;;;;4.47;0.88;;;11.50;90.50;;;;;;5066986;28;20028;-77
2023/01/13 07:49:14;;;;;;;4.22;1.20;;;11.50;90.50;;;;;;5065857;28;20536;-76
2023/01/13 07:51:40;;;;;;;2.28;0.98;;;11.50;90.40;;;;;;5046966;28;20243;-78
2023/01/13 07:54:05;;;;;;;4.22;0.82;;;11.50;90.40;;;;;;5046951;28;20071;-76
2023/01/13 07:56:31;;;;;;;4.53;1.27;;;11.60;90.50;;;;;;5047974;28;20143;-77
2023/01/13 07:59:00;;;;;;;3.42;1.17;;;11.50;90.50;;;;;;5046630;28;20025;-77
2023/01/13 08:01:30;;;;;;;5.80;1.27;;;11.50;90.50;;;;;;5065438;28;20056;-78
2023/01/13 08:03:57;;;;;;;2.47;0.82;;;11.60;90.50;;;;;;5067857;28;20078;-76
2023/01/13 08:06:23;;;;;;;3.72;1.40;;;11.50;90.50;;;;;;5068193;28;20033;-77
2023/01/13 08:08:49;;;;;;;4.57;0.93;;;11.60;90.50;;;;;;5066623;28;20031;-77
2023/01/13 08:11:15;;;;;;;3.33;0.93;;;11.50;90.50;;;;;;5066509;28;20594;-76
2023/01/13 08:13:41;;;;;;;3.47;0.80;;;11.60;90.50;;;;;;5066439;28;20033;-78
2023/01/13 08:16:09;;;;;;;2.08;0.60;;;11.50;90.50;;;;;;5066826;28;20029;-77
2023/01/13 08:18:35;;;;;;;4.15;0.80;;;11.60;90.50;;;;;;5066700;28;20408;-80
2023/01/13 08:21:04;;;;;;;2.20;0.75;;;11.50;90.50;;;;;;5066353;28;20056;-78
2023/01/13 08:23:29;;;;;;;2.92;0.80;;;11.60;90.50;;;;;;5068179;28;20054;-77
2023/01/13 08:26:00;;;;;;;4.63;1.45;;;11.50;90.50;;;;;;5067007;28;20052;-78
2023/01/13 08:28:25;;;;;;;3.13;0.90;;;11.60;90.40;;;;;;5068147;28;20025;-79
2023/01/13 08:30:52;;;;;;;3.97;1.13;;;11.60;90.50;;;;;;5068601;28;20095;-78
2023/01/13 08:33:18;;;;;;;6.18;1.17;;;11.50;90.50;;;;;;5067006;28;20086;-78
2023/01/13 08:35:44;;;;;;;3.92;0.95;;;11.60;90.60;;;;;;5069289;28;20025;-77
2023/01/13 08:38:09;;;;;;;3.50;0.70;;;11.60;90.50;;;;;;5066599;28;20028;-80
2023/01/13 08:40:35;;;;;;;3.67;0.93;;;11.60;90.40;;;;;;5067185;28;20120;-75
2023/01/13 08:43:01;;;;;;;3.83;0.90;;;11.50;90.30;;;;;;5067187;28;20515;-77
2023/01/13 08:45:26;;;;;;;4.07;0.98;;;11.50;90.40;;;;;;5063089;28;20417;-78
2023/01/13 08:47:52;;;;;;;5.07;1.52;;;11.60;90.50;;;;;;5047450;28;20036;-80
2023/01/13 08:50:18;;;;;;;4.35;1.45;;;11.60;90.50;;;;;;5047263;28;20079;-82
2023/01/13 08:52:43;;;;;;;5.78;1.95;;;11.60;90.30;;;;;;5048681;28;20090;-79
2023/01/13 08:55:10;;;;;;;6.43;1.95;;;11.50;90.40;;;;;;5050815;28;20025;-78
2023/01/13 08:57:35;;;;;;;5.03;1.60;;;11.50;90.40;;;;;;5051587;28;20033;-78
2023/01/13 09:00:01;;;;;;;5.53;1.90;;;11.50;90.40;;;;;;5050804;28;20063;-79
2023/01/13 09:02:27;;;;;;;5.53;1.80;;;11.50;90.40;;;;;;5050000;28;20052;-77
2023/01/13 09:04:53;;;;;;;5.97;1.70;;;11.60;90.40;;;;;;5049357;28;20057;-77
2023/01/13 09:07:19;;;;;;;4.38;1.48;;;11.60;90.40;;;;;;5049921;28;20401;-78
2023/01/13 09:09:44;;;;;;;6.10;1.80;;;11.60;90.40;;;;;;5049834;28;20032;-77
2023/01/13 09:14:56;;;;;;;5.75;1.60;;;11.60;90.30;;;;;;5051416;28;20183;-78
2023/01/13 09:17:22;;;;;;;5.70;1.67;;;11.60;90.30;;;;;;5051321;28;20128;-80
2023/01/13 09:19:48;;;;;;;7.47;1.90;;;11.60;90.30;;;;;;5049344;28;20025;-78
2023/01/13 09:22:16;;;;;;;7.65;2.08;;;11.60;90.30;;;;;;5050020;28;20021;-77
2023/01/13 09:24:42;;;;;;;6.25;1.80;;;11.60;90.30;;;;;;5051133;28;20086;-78
2023/01/13 09:27:09;;;;;;;5.63;1.90;;;11.60;90.30;;;;;;5050448;28;20025;-80
2023/01/13 09:29:34;;;;;;;5.05;1.80;;;11.60;90.40;;;;;;5050136;28;20051;-77
2023/01/13 09:32:00;;;;;;;6.03;1.90;;;11.60;90.40;;;;;;5049512;28;20476;-78
2023/01/13 09:37:09;;;;;;;5.60;1.90;;;11.60;90.50;;;;;;5051020;28;20040;-77
2023/01/13 09:39:35;;;;;;;5.05;1.60;;;11.60;90.40;;;;;;5050028;28;20028;-78
2023/01/13 09:45:17;;;;;;;9.95;2.28;;;11.50;90.40;;;;;;5050976;28;20404;-79
2023/01/13 09:48:05;;;;;;;8.57;2.30;;;11.50;90.30;;;;;;5049676;28;20137;-80
2023/01/13 09:50:36;;;;;;;7.88;2.03;;;11.50;90.20;;;;;;5049813;28;20033;-76
2023/01/13 09:53:03;;;;;;;8.70;2.37;;;11.60;90.10;;;;;;5049040;28;20056;-77
2023/01/13 09:55:35;;;;;;;7.97;2.50;;;11.50;90.00;;;;;;5049192;28;20033;-76
2023/01/13 09:58:05;;;;;;;8.88;2.30;;;11.50;90.00;;;;;;5049295;28;20513;-77
2023/01/13 10:00:39;;;;;;;17.17;3.03;;;11.60;89.90;;;;;;5050006;28;20112;-77
2023/01/13 10:03:08;;;;;;;10.20;2.40;;;11.50;89.80;;;;;;5049248;28;20036;-79
2023/01/13 10:05:42;;;;;;;9.10;2.40;;;11.50;89.20;;;;;;5047873;28;20025;-77
2023/01/13 10:08:15;;;;;;;11.35;2.40;;;11.50;88.40;;;;;;5049429;28;20397;-77
2023/01/13 10:10:45;;;;;;;9.70;2.17;;;11.50;87.90;;;;;;5060126;28;20029;-79
2023/01/13 10:13:18;;;;;;;10.85;2.78;;;11.60;88.00;;;;;;5049346;28;20035;-80
2023/01/13 10:16:10;;;;;;;7.47;2.20;;;11.50;88.20;;;;;;5047773;28;20029;-78
2023/01/13 10:18:57;;;;;;;9.98;2.22;;;11.50;88.40;;;;;;5045223;28;20087;-79
2023/01/13 10:21:51;;;;;;;11.52;2.47;;;11.50;88.70;;;;;;5054614;28;20112;-80
2023/01/13 10:24:40;;;;;;;11.98;2.72;;;11.50;88.90;;;;;;5055551;28;20028;-83
2023/01/13 10:27:19;;;;;;;8.52;2.20;;;11.50;89.00;;;;;;5054096;28;20021;-81
2023/01/13 10:29:44;;;;;;;8.02;2.65;;;11.60;89.10;;;;;;5054065;28;20021;-79
2023/01/13 10:32:10;;;;;;;7.20;2.28;;;11.60;89.30;;;;;;5053954;28;20341;-80
2023/01/13 10:34:50;;;;;;;8.05;2.25;;;11.60;89.50;;;;;;5054961;28;20060;-81
2023/01/13 10:37:26;;;;;;;8.52;2.50;;;11.60;89.60;;;;;;5053858;28;20542;-81
2023/01/13 10:39:59;;;;;;;8.25;2.00;;;11.60;89.50;;;;;;5053971;28;20057;-81
2023/01/13 10:42:25;;;;;;;10.48;2.22;;;11.60;89.50;;;;;;5053397;28;20116;-81
2023/01/13 10:44:56;;;;;;;5.70;2.20;;;11.60;89.60;;;;;;5054816;28;20064;-79
2023/01/13 10:47:35;;;;;;;7.47;2.00;;;11.60;89.60;;;;;;5057094;28;20025;-81
2023/01/13 10:50:09;;;;;;;6.95;2.00;;;11.60;89.70;;;;;;5057123;28;20061;-81
2023/01/13 10:52:53;;;;;;;6.50;1.83;;;11.60;89.80;;;;;;5053613;28;20039;-80
2023/01/13 10:55:40;;;;;;;8.02;2.15;;;11.60;89.80;;;;;;5053187;28;20045;-81
2023/01/13 10:58:17;;;;;;;7.97;2.00;;;11.60;89.90;;;;;;5053105;28;20029;-79
2023/01/13 11:00:45;;;;;;;5.68;1.58;;;11.60;90.20;;;;;;5053362;28;20021;-79
2023/01/13 11:03:15;;;;;;;6.43;1.77;;;11.70;90.00;;;;;;5054537;28;20025;-80
2023/01/13 11:05:52;;;;;;;6.65;1.38;;;11.70;90.00;;;;;;5053898;28;20415;-80
2023/01/13 11:08:45;;;;;;;7.70;1.60;;;11.70;89.90;;;;;;5053059;28;20029;-79
2023/01/13 11:11:39;;;;;;;6.50;1.73;;;11.70;89.90;;;;;;5051314;28;20405;-82
2023/01/13 11:14:40;;;;;;;6.53;1.55;;;11.70;90.00;;;;;;5054333;28;20416;-80
2023/01/13 11:17:09;;;;;;;7.05;1.80;;;11.70;90.00;;;;;;5052571;28;20087;-80
2023/01/13 11:19:40;;;;;;;7.28;1.70;;;11.70;90.00;;;;;;5053689;28;20078;-79
2023/01/13 11:22:13;;;;;;;6.85;1.70;;;11.60;90.00;;;;;;5053220;28;20031;-80
2023/01/13 11:24:41;;;;;;;6.70;1.60;;;11.70;90.00;;;;;;5056800;28;20025;-80
2023/01/13 11:27:20;;;;;;;7.50;1.80;;;11.60;90.00;;;;;;5054886;28;20115;-80
2023/01/13 11:30:16;;;;;;;6.25;1.50;;;11.60;90.00;;;;;;5053577;28;20033;-79
2023/01/13 11:33:00;;;;;;;6.35;2.03;;;11.70;90.00;;;;;;5053714;28;20029;-79
2023/01/13 11:35:27;;;;;;;6.18;1.50;;;11.60;90.00;;;;;;5052602;28;20025;-79
2023/01/13 11:38:12;;;;;;;7.07;2.10;;;11.70;90.00;;;;;;5054134;28;20025;-80
2023/01/13 11:40:44;;;;;;;5.63;1.50;;;11.60;90.00;;;;;;5053207;28;20017;-80
2023/01/13 11:43:23;;;;;;;6.20;1.60;;;11.70;90.10;;;;;;5052919;28;20057;-80
2023/01/13 11:45:52;;;;;;;4.40;1.88;;;11.60;90.00;;;;;;5051692;28;20029;-78
2023/01/13 11:48:22;;;;;;;5.53;1.60;;;11.70;90.10;;;;;;5053440;28;20108;-81
2023/01/13 11:51:15;;;;;;;6.55;1.98;;;11.60;90.10;;;;;;5051757;28;20477;-80
2023/01/13 11:54:03;;;;;;;5.47;1.58;;;11.70;90.10;;;;;;5051450;28;20032;-80
2023/01/13 11:56:56;;;;;;;6.32;1.60;;;11.60;90.10;;;;;;5052891;28;20033;-80
2023/01/13 11:59:34;;;;;;;5.15;1.50;;;11.60;90.10;;;;;;5056128;28;20488;-80
2023/01/13 12:02:24;;;;;;;6.88;1.90;;;11.70;90.20;;;;;;5052190;28;20044;-78
2023/01/13 12:05:21;;;;;;;8.60;1.80;;;11.60;90.20;;;;;;5052136;28;20025;-79
2023/01/13 12:08:22;;;;;;;5.57;1.63;;;11.60;90.00;;;;;;5055346;28;20481;-80
2023/01/13 12:11:14;;;;;;;6.38;1.70;;;11.60;89.90;;;;;;5057069;28;20021;-80
2023/01/13 12:14:18;;;;;;;5.97;1.70;;;11.60;90.00;;;;;;5070130;28;20116;-79
2023/01/13 12:16:47;;;;;;;6.82;1.88;;;11.60;90.00;;;;;;5009362;28;20074;-79
2023/01/13 12:19:28;;;;;;;5.75;1.60;;;11.60;90.00;;;;;;5074276;28;20060;-81
2023/01/13 12:22:33;;;;;;;4.60;1.38;;;11.60;90.00;;;;;;5074469;28;20028;-80
2023/01/13 12:25:11;;;;;;;6.25;1.63;;;11.60;90.00;;;;;;5074424;28;20112;-80
2023/01/13 12:27:52;;;;;;;7.32;1.65;;;11.60;90.00;;;;;;5073619;28;20029;-80
2023/01/13 12:30:30;;;;;;;4.72;1.48;;;11.70;90.10;;;;;;5077668;28;20024;-76
2023/01/13 12:33:05;;;;;;;4.75;1.30;;;11.60;90.00;;;;;;5075170;28;20667;-75
2023/01/13 12:35:57;;;;;;;4.13;1.48;;;11.60;90.10;;;;;;5075932;28;20488;-76
2023/01/13 12:38:28;;;;;;;8.25;1.70;;;11.60;90.10;;;;;;5078116;28;20031;-79
2023/01/13 12:41:13;;;;;;;20.20;2.35;;;11.60;90.00;;;;;;5076518;28;20074;-80
2023/01/13 12:46:30;;;;;;;16.88;2.90;;;11.50;89.90;;;;;;5077047;28;20030;-77
2023/01/13 12:49:04;;;;;;;20.98;2.63;;;11.60;89.90;;;;;;5074560;28;20522;-79
2023/01/13 12:51:36;;;;;;;13.18;1.75;;;11.60;90.00;;;;;;5068142;28;20028;-76
2023/01/13 12:54:29;;;;;;;17.80;2.42;;;11.60;90.00;;;;;;5069079;28;20485;-77
2023/01/13 12:56:56;;;;;;;19.85;2.97;;;11.60;90.00;;;;;;5076885;28;20028;-82
2023/01/13 12:59:32;;;;;;;15.25;2.45;;;11.60;90.00;;;;;;5078198;28;20021;-82
2023/01/13 13:02:10;;;;;;;11.55;2.15;;;11.60;90.00;;;;;;5076762;28;20028;-81
2023/01/13 13:04:51;;;;;;;8.95;1.77;;;11.60;90.30;;;;;;5078065;28;20020;-81
2023/01/13 13:07:25;;;;;;;14.55;2.20;;;11.60;90.10;;;;;;5080735;28;20028;-81
2023/01/13 13:10:40;;;;;;;18.80;2.45;;;11.60;90.00;;;;;;5075079;28;20028;-80
2023/01/13 13:13:18;;;;;;;9.50;1.85;;;11.60;90.10;;;;;;5053131;28;20052;-82
2023/01/13 13:15:49;;;;;;;12.98;2.88;;;11.60;90.10;;;;;;5078478;28;20036;-81
2023/01/13 13:18:20;;;;;;;9.37;1.93;;;11.60;90.10;;;;;;5074459;28;20035;-79
2023/01/13 13:21:08;;;;;;;10.05;2.13;;;11.60;90.10;;;;;;5075212;28;20313;-80
2023/01/13 13:23:34;;;;;;;11.32;2.13;;;11.60;90.10;;;;;;5077466;28;20103;-81
2023/01/13 13:26:23;;;;;;;9.60;1.70;;;11.60;90.10;;;;;;5075707;28;20024;-79
2023/01/13 13:29:13;;;;;;;7.15;1.52;;;11.60;90.10;;;;;;5063983;28;20385;-81
2023/01/13 13:31:51;;;;;;;9.20;1.55;;;11.60;90.10;;;;;;5075522;28;20028;-81
2023/01/13 13:34:46;;;;;;;11.18;2.08;;;11.60;90.10;;;;;;5075600;28;20055;-81
2023/01/13 13:46:45;;;;;;;6.93;1.50;;;11.60;90.10;;;;;;5074977;28;20024;-81
2023/01/13 13:48:38;;;;;;;8.00;1.60;;;11.60;90.00;;;;;;5055344;28;19943;-80
2023/01/13 13:51:26;;;;;;;7.68;1.40;;;11.70;90.10;;;;;;5066729;28;20048;-80
2023/01/13 13:53:53;;;;;;;6.97;1.65;;;11.60;90.00;;;;;;5067553;28;20476;-79
2023/01/13 13:56:23;;;;;;;7.05;1.75;;;11.60;90.10;;;;;;5057642;28;20033;-80
2023/01/13 13:58:49;;;;;;;6.07;1.60;;;11.60;90.10;;;;;;5062019;28;20020;-78
2023/01/13 14:01:31;;;;;;;6.13;1.45;;;11.60;90.10;;;;;;5054359;28;20101;-80
2023/01/13 14:04:02;;;;;;;7.10;1.40;;;11.60;90.10;;;;;;5054280;28;20039;-80
2023/01/13 14:06:28;;;;;;;6.68;1.38;;;11.60;90.30;;;;;;5058157;28;20064;-80
2023/01/13 14:08:54;;;;;;;7.38;1.65;;;11.60;90.10;;;;;;5057398;28;20040;-81